sensor_id;sensor_type;location;lat;lon;timestamp;pressure;altitude;pressure_sealevel;temperature;humidity
48200;BME280;33990;44.602;10.976;2022-12-11T00:01:41;99311.84;;;19.09;51.03
48200;BME280;33990;44.602;10.976;2022-12-11T00:04:08;99305.66;;;19.08;50.66
48200;BME280;33990;44.602;10.976;2022-12-11T00:06:36;99319.06;;;19.08;50.53
48200;BME280;33990;44.602;10.976;2022-12-11T00:09:04;99316.38;;;19.08;50.28
48200;BME280;33990;44.602;10.976;2022-12-11T00:11:31;99312.00;;;19.07;50.45
48200;BME280;33990;44.602;10.976;2022-12-11T00:13:59;99311.00;;;19.08;50.45
48200;BME280;33990;44.602;10.976;2022-12-11T00:16:27;99314.66;;;19.07;50.42
48200;BME280;33990;44.602;10.976;2022-12-11T00:18:54;99334.28;;;19.08;50.40
48200;BME280;33990;44.602;10.976;2022-12-11T00:21:21;99338.81;;;19.07;50.42
48200;BME280;33990;44.602;10.976;2022-12-11T00:23:49;99342.31;;;19.08;50.66
48200;BME280;33990;44.602;10.976;2022-12-11T00:26:16;99337.97;;;19.07;50.34
48200;BME280;33990;44.602;10.976;2022-12-11T00:28:44;99338.81;;;19.07;50.30
48200;BME280;33990;44.602;10.976;2022-12-11T00:31:15;99346.84;;;19.07;50.37
48200;BME280;33990;44.602;10.976;2022-12-11T00:33:44;99340.84;;;19.05;50.33
48200;BME280;33990;44.602;10.976;2022-12-11T00:36:14;99342.50;;;19.06;50.21
48200;BME280;33990;44.602;10.976;2022-12-11T00:38:42;99340.00;;;19.05;50.04
48200;BME280;33990;44.602;10.976;2022-12-11T00:41:10;99341.66;;;19.06;50.44
48200;BME280;33990;44.602;10.976;2022-12-11T00:43:38;99340.84;;;19.05;50.32
48200;BME280;33990;44.602;10.976;2022-12-11T00:46:05;99336.47;;;19.04;50.37
48200;BME280;33990;44.602;10.976;2022-12-11T00:48:33;99340.00;;;19.05;50.33
48200;BME280;33990;44.602;10.976;2022-12-11T00:51:00;99333.63;;;19.06;50.36
48200;BME280;33990;44.602;10.976;2022-12-11T00:53:28;99323.91;;;19.05;50.28
48200;BME280;33990;44.602;10.976;2022-12-11T00:55:55;99327.44;;;19.05;50.39
48200;BME280;33990;44.602;10.976;2022-12-11T00:58:23;99329.28;;;19.05;50.39
48200;BME280;33990;44.602;10.976;2022-12-11T01:00:51;99332.94;;;19.03;50.54
48200;BME280;33990;44.602;10.976;2022-12-11T01:03:19;99340.00;;;19.05;50.49
48200;BME280;33990;44.602;10.976;2022-12-11T01:05:51;99349.03;;;19.03;50.52
48200;BME280;33990;44.602;10.976;2022-12-11T01:08:19;99356.09;;;19.05;50.49
48200;BME280;33990;44.602;10.976;2022-12-11T01:10:47;99358.91;;;19.03;50.51
48200;BME280;33990;44.602;10.976;2022-12-11T01:13:14;99361.59;;;19.03;50.43
48200;BME280;33990;44.602;10.976;2022-12-11T01:15:44;99357.06;;;19.03;50.50
48200;BME280;33990;44.602;10.976;2022-12-11T01:18:13;99349.03;;;19.03;50.42
48200;BME280;33990;44.602;10.976;2022-12-11T01:20:42;99352.56;;;19.04;50.50
48200;BME280;33990;44.602;10.976;2022-12-11T01:23:11;99353.56;;;19.03;50.51
48200;BME280;33990;44.602;10.976;2022-12-11T01:25:39;99348.19;;;19.03;50.73
48200;BME280;33990;44.602;10.976;2022-12-11T01:28:08;99352.72;;;19.02;50.59
48200;BME280;33990;44.602;10.976;2022-12-11T01:30:35;99342.00;;;19.02;50.31
48200;BME280;33990;44.602;10.976;2022-12-11T01:33:03;99325.06;;;19.02;50.39
48200;BME280;33990;44.602;10.976;2022-12-11T01:35:32;99332.09;;;19.03;50.58
48200;BME280;33990;44.602;10.976;2022-12-11T01:38:00;99331.28;;;19.02;50.65
48200;BME280;33990;44.602;10.976;2022-12-11T01:40:27;99330.44;;;19.02;50.55
48200;BME280;33990;44.602;10.976;2022-12-11T01:42:55;99332.28;;;19.01;50.47
48200;BME280;33990;44.602;10.976;2022-12-11T01:50:26;99326.06;;;19.01;50.67
48200;BME280;33990;44.602;10.976;2022-12-11T01:52:54;99333.28;;;19.00;50.40
48200;BME280;33990;44.602;10.976;2022-12-11T01:55:22;99331.44;;;19.01;50.68
48200;BME280;33990;44.602;10.976;2022-12-11T01:57:51;99345.69;;;19.01;50.28
48200;BME280;33990;44.602;10.976;2022-12-11T02:00:20;99339.50;;;19.01;50.41
48200;BME280;33990;44.602;10.976;2022-12-11T02:02:47;99322.56;;;19.00;50.42
48200;BME280;33990;44.602;10.976;2022-12-11T02:05:15;99321.72;;;19.00;50.50
48200;BME280;33990;44.602;10.976;2022-12-11T02:07:46;99324.41;;;19.00;50.55
48200;BME280;33990;44.602;10.976;2022-12-11T02:10:14;99329.78;;;19.00;50.44
48200;BME280;33990;44.602;10.976;2022-12-11T02:15:33;99332.47;;;19.00;50.34
48200;BME280;33990;44.602;10.976;2022-12-11T02:21:07;99328.75;;;19.01;50.49
48200;BME280;33990;44.602;10.976;2022-12-11T02:26:47;99329.78;;;19.00;50.32
48200;BME280;33990;44.602;10.976;2022-12-11T02:29:22;99315.50;;;18.99;50.31
48200;BME280;33990;44.602;10.976;2022-12-11T02:32:07;99316.38;;;19.00;50.41
48200;BME280;33990;44.602;10.976;2022-12-11T02:34:55;99314.66;;;18.99;50.32
48200;BME280;33990;44.602;10.976;2022-12-11T02:37:25;99320.03;;;18.99;50.36
48200;BME280;33990;44.602;10.976;2022-12-11T02:39:56;99321.88;;;18.98;50.33
48200;BME280;33990;44.602;10.976;2022-12-11T02:42:26;99321.72;;;19.00;50.33
48200;BME280;33990;44.602;10.976;2022-12-11T02:44:58;99325.41;;;18.99;50.36
48200;BME280;33990;44.602;10.976;2022-12-11T02:47:28;99311.97;;;18.99;50.56
48200;BME280;33990;44.602;10.976;2022-12-11T02:49:59;99301.25;;;18.99;50.37
48200;BME280;33990;44.602;10.976;2022-12-11T02:52:30;99298.56;;;18.99;50.34
48200;BME280;33990;44.602;10.976;2022-12-11T02:54:59;99304.94;;;18.98;50.47
48200;BME280;33990;44.602;10.976;2022-12-11T02:57:47;99313.00;;;18.98;50.26
48200;BME280;33990;44.602;10.976;2022-12-11T03:00:17;99313.84;;;18.98;50.29
48200;BME280;33990;44.602;10.976;2022-12-11T03:02:45;99308.47;;;18.98;50.28
48200;BME280;33990;44.602;10.976;2022-12-11T03:05:13;99310.31;;;18.98;50.29
48200;BME280;33990;44.602;10.976;2022-12-11T03:07:42;99304.94;;;18.98;50.39
48200;BME280;33990;44.602;10.976;2022-12-11T03:10:13;99311.16;;;18.98;50.33
48200;BME280;33990;44.602;10.976;2022-12-11T03:12:45;99307.63;;;18.98;50.32
48200;BME280;33990;44.602;10.976;2022-12-11T03:15:21;99308.66;;;18.97;50.34
48200;BME280;33990;44.602;10.976;2022-12-11T03:18:05;99301.44;;;18.97;50.36
48200;BME280;33990;44.602;10.976;2022-12-11T03:20:44;99313.00;;;18.98;50.34
48200;BME280;33990;44.602;10.976;2022-12-11T03:23:18;99314.84;;;18.97;50.17
48200;BME280;33990;44.602;10.976;2022-12-11T03:25:54;99322.06;;;18.97;50.14
48200;BME280;33990;44.602;10.976;2022-12-11T03:28:43;99326.41;;;18.98;50.21
48200;BME280;33990;44.602;10.976;2022-12-11T03:31:21;99322.06;;;18.97;50.34
48200;BME280;33990;44.602;10.976;2022-12-11T03:33:53;99322.88;;;18.97;50.49
48200;BME280;33990;44.602;10.976;2022-12-11T03:36:28;99316.69;;;18.97;50.37
48200;BME280;33990;44.602;10.976;2022-12-11T03:39:00;99331.78;;;18.98;50.33
48200;BME280;33990;44.602;10.976;2022-12-11T03:41:30;99333.63;;;18.97;50.46
48200;BME280;33990;44.602;10.976;2022-12-11T03:43:59;99334.63;;;18.96;50.26
48200;BME280;33990;44.602;10.976;2022-12-11T03:46:33;99345.19;;;18.98;50.35
48200;BME280;33990;44.602;10.976;2022-12-11T03:49:07;99340.81;;;18.97;50.36
48200;BME280;33990;44.602;10.976;2022-12-11T03:51:37;99327.41;;;18.97;50.32
48200;BME280;33990;44.602;10.976;2022-12-11T03:54:05;99316.69;;;18.97;50.36
48200;BME280;33990;44.602;10.976;2022-12-11T03:56:34;99312.16;;;18.97;50.28
48200;BME280;33990;44.602;10.976;2022-12-11T03:59:04;99308.66;;;18.97;50.26
48200;BME280;33990;44.602;10.976;2022-12-11T04:01:31;99308.66;;;18.97;50.33
48200;BME280;33990;44.602;10.976;2022-12-11T04:03:59;99314.84;;;18.97;50.39
48200;BME280;33990;44.602;10.976;2022-12-11T04:06:26;99314.00;;;18.97;50.40
48200;BME280;33990;44.602;10.976;2022-12-11T04:08:54;99322.06;;;18.97;50.52
48200;BME280;33990;44.602;10.976;2022-12-11T04:11:21;99321.22;;;18.96;50.29
48200;BME280;33990;44.602;10.976;2022-12-11T04:14:07;99322.06;;;18.97;50.23
48200;BME280;33990;44.602;10.976;2022-12-11T04:16:53;99319.38;;;18.97;50.26
48200;BME280;33990;44.602;10.976;2022-12-11T04:19:22;99318.53;;;18.96;50.26
48200;BME280;33990;44.602;10.976;2022-12-11T04:22:12;99315.03;;;18.96;50.38
48200;BME280;33990;44.602;10.976;2022-12-11T04:24:59;99322.88;;;18.97;50.56
48200;BME280;33990;44.602;10.976;2022-12-11T04:27:27;99324.88;;;18.95;50.35
48200;BME280;33990;44.602;10.976;2022-12-11T04:30:16;99342.66;;;18.96;50.31
48200;BME280;33990;44.602;10.976;2022-12-11T04:32:43;99342.66;;;18.96;50.30
48200;BME280;33990;44.602;10.976;2022-12-11T04:35:11;99345.50;;;18.95;50.30
48200;BME280;33990;44.602;10.976;2022-12-11T04:37:39;99338.28;;;18.95;50.30
48200;BME280;33990;44.602;10.976;2022-12-11T04:40:10;99330.25;;;18.95;50.35
48200;BME280;33990;44.602;10.976;2022-12-11T04:42:38;99335.59;;;18.95;50.37
48200;BME280;33990;44.602;10.976;2022-12-11T04:45:07;99332.94;;;18.95;50.23
48200;BME280;33990;44.602;10.976;2022-12-11T04:47:36;99332.94;;;18.95;50.33
48200;BME280;33990;44.602;10.976;2022-12-11T04:50:06;99336.63;;;18.94;50.11
48200;BME280;33990;44.602;10.976;2022-12-11T04:52:34;99333.94;;;18.94;50.22
48200;BME280;33990;44.602;10.976;2022-12-11T04:55:03;99335.59;;;18.95;50.19
48200;BME280;33990;44.602;10.976;2022-12-11T04:57:31;99337.47;;;18.95;50.25
48200;BME280;33990;44.602;10.976;2022-12-11T04:59:58;99333.94;;;18.94;50.26
48200;BME280;33990;44.602;10.976;2022-12-11T05:02:26;99332.94;;;18.95;50.40
48200;BME280;33990;44.602;10.976;2022-12-11T05:04:53;99340.13;;;18.95;50.20
48200;BME280;33990;44.602;10.976;2022-12-11T05:07:21;99335.59;;;18.95;50.29
48200;BME280;33990;44.602;10.976;2022-12-11T05:09:48;99326.72;;;18.95;50.30
48200;BME280;33990;44.602;10.976;2022-12-11T05:12:16;99333.78;;;18.96;50.48
48200;BME280;33990;44.602;10.976;2022-12-11T05:14:43;99340.13;;;18.95;50.24
48200;BME280;33990;44.602;10.976;2022-12-11T05:17:10;99345.50;;;18.95;50.39
48200;BME280;33990;44.602;10.976;2022-12-11T05:19:38;99339.16;;;18.96;50.28
48200;BME280;33990;44.602;10.976;2022-12-11T05:22:05;99341.84;;;18.96;50.26
48200;BME280;33990;44.602;10.976;2022-12-11T05:24:32;99352.56;;;18.96;50.33
48200;BME280;33990;44.602;10.976;2022-12-11T05:27:00;99350.88;;;18.95;50.33
48200;BME280;33990;44.602;10.976;2022-12-11T05:29:27;99355.25;;;18.96;50.38
48200;BME280;33990;44.602;10.976;2022-12-11T05:31:55;99351.69;;;18.95;50.26
48200;BME280;33990;44.602;10.976;2022-12-11T05:34:22;99354.38;;;18.95;50.28
48200;BME280;33990;44.602;10.976;2022-12-11T05:36:49;99345.50;;;18.95;50.26
48200;BME280;33990;44.602;10.976;2022-12-11T05:39:17;99367.97;;;18.94;50.13
48200;BME280;33990;44.602;10.976;2022-12-11T05:41:44;99360.75;;;18.94;50.13
48200;BME280;33990;44.602;10.976;2022-12-11T05:44:12;99361.59;;;18.95;50.29
48200;BME280;33990;44.602;10.976;2022-12-11T05:46:39;99360.75;;;18.94;50.27
48200;BME280;33990;44.602;10.976;2022-12-11T05:49:09;99366.97;;;18.95;50.18
48200;BME280;33990;44.602;10.976;2022-12-11T05:51:37;99362.59;;;18.94;50.02
48200;BME280;33990;44.602;10.976;2022-12-11T05:54:05;99358.91;;;18.95;50.09
48200;BME280;33990;44.602;10.976;2022-12-11T05:56:33;99366.13;;;18.94;50.11
48200;BME280;33990;44.602;10.976;2022-12-11T05:59:02;99369.63;;;18.95;50.15
48200;BME280;33990;44.602;10.976;2022-12-11T06:01:38;99376.84;;;18.94;49.90
48200;BME280;33990;44.602;10.976;2022-12-11T06:04:08;99377.84;;;18.93;50.01
48200;BME280;33990;44.602;10.976;2022-12-11T06:06:36;99381.38;;;18.94;49.68
48200;BME280;33990;44.602;10.976;2022-12-11T06:09:05;99386.75;;;18.94;49.79
48200;BME280;33990;44.602;10.976;2022-12-11T06:11:33;99384.88;;;18.94;49.65
48200;BME280;33990;44.602;10.976;2022-12-11T06:14:02;99390.44;;;18.93;49.84
48200;BME280;33990;44.602;10.976;2022-12-11T06:16:30;99397.47;;;18.94;49.49
48200;BME280;33990;44.602;10.976;2022-12-11T06:18:58;99388.72;;;18.92;49.57
48200;BME280;33990;44.602;10.976;2022-12-11T06:21:28;99401.31;;;18.91;49.55
48200;BME280;33990;44.602;10.976;2022-12-11T06:23:57;99400.47;;;18.91;49.50
48200;BME280;33990;44.602;10.976;2022-12-11T06:26:26;99411.38;;;18.89;49.36
48200;BME280;33990;44.602;10.976;2022-12-11T06:28:53;99409.53;;;18.90;49.39
48200;BME280;33990;44.602;10.976;2022-12-11T06:31:21;99416.72;;;18.89;49.69
48200;BME280;33990;44.602;10.976;2022-12-11T06:33:48;99415.06;;;18.88;49.41
48200;BME280;33990;44.602;10.976;2022-12-11T06:36:17;99415.91;;;18.89;49.56
48200;BME280;33990;44.602;10.976;2022-12-11T06:38:45;99418.41;;;18.90;49.32
48200;BME280;33990;44.602;10.976;2022-12-11T06:41:14;99417.56;;;18.90;49.05
48200;BME280;33990;44.602;10.976;2022-12-11T06:43:42;99415.91;;;18.89;49.21
48200;BME280;33990;44.602;10.976;2022-12-11T06:46:12;99414.88;;;18.90;49.29
48200;BME280;33990;44.602;10.976;2022-12-11T06:48:39;99418.56;;;18.89;49.47
48200;BME280;33990;44.602;10.976;2022-12-11T06:51:10;99422.94;;;18.90;49.35
48200;BME280;33990;44.602;10.976;2022-12-11T06:53:39;99429.97;;;18.91;49.40
48200;BME280;33990;44.602;10.976;2022-12-11T06:56:09;99433.66;;;18.90;49.30
48200;BME280;33990;44.602;10.976;2022-12-11T06:58:38;99427.47;;;18.89;49.25
48200;BME280;33990;44.602;10.976;2022-12-11T07:01:26;99431.97;;;18.89;49.04
48200;BME280;33990;44.602;10.976;2022-12-11T07:03:57;99440.03;;;18.89;48.94
48200;BME280;33990;44.602;10.976;2022-12-11T07:06:26;99430.28;;;18.88;49.08
48200;BME280;33990;44.602;10.976;2022-12-11T07:08:55;99444.38;;;18.90;49.01
48200;BME280;33990;44.602;10.976;2022-12-11T07:11:22;99464.16;;;18.89;49.01
48200;BME280;33990;44.602;10.976;2022-12-11T07:13:50;99463.31;;;18.88;48.93
48200;BME280;33990;44.602;10.976;2022-12-11T07:16:17;99453.56;;;18.87;48.66
48200;BME280;33990;44.602;10.976;2022-12-11T07:18:48;99462.47;;;18.88;48.83
48200;BME280;33990;44.602;10.976;2022-12-11T07:21:16;99475.03;;;18.87;48.84
48200;BME280;33990;44.602;10.976;2022-12-11T07:23:44;99467.00;;;18.87;49.04
48200;BME280;33990;44.602;10.976;2022-12-11T07:26:14;99477.72;;;18.87;48.95
48200;BME280;33990;44.602;10.976;2022-12-11T07:28:42;99478.72;;;18.86;48.83
48200;BME280;33990;44.602;10.976;2022-12-11T07:31:12;99478.72;;;18.86;48.56
48200;BME280;33990;44.602;10.976;2022-12-11T07:33:40;99483.25;;;18.86;48.56
48200;BME280;33990;44.602;10.976;2022-12-11T07:36:09;99483.25;;;18.86;48.64
48200;BME280;33990;44.602;10.976;2022-12-11T07:38:37;99488.63;;;18.86;48.72
48200;BME280;33990;44.602;10.976;2022-12-11T07:41:07;99504.69;;;18.86;48.43
48200;BME280;33990;44.602;10.976;2022-12-11T07:43:35;99511.91;;;18.85;48.34
48200;BME280;33990;44.602;10.976;2022-12-11T07:46:05;99522.78;;;18.84;48.58
48200;BME280;33990;44.602;10.976;2022-12-11T07:48:34;99524.47;;;18.85;48.37
48200;BME280;33990;44.602;10.976;2022-12-11T07:53:35;99529.00;;;18.84;48.24
48200;BME280;33990;44.602;10.976;2022-12-11T07:56:03;99539.72;;;18.84;48.19
48200;BME280;33990;44.602;10.976;2022-12-11T07:58:31;99552.28;;;18.84;48.24
48200;BME280;33990;44.602;10.976;2022-12-11T08:00:58;99563.00;;;18.84;48.59
48200;BME280;33990;44.602;10.976;2022-12-11T08:03:25;99567.38;;;18.85;48.12
48200;BME280;33990;44.602;10.976;2022-12-11T08:05:53;99568.34;;;18.84;48.35
48200;BME280;33990;44.602;10.976;2022-12-11T08:08:20;99567.38;;;18.85;48.67
48200;BME280;33990;44.602;10.976;2022-12-11T08:10:48;99575.44;;;18.85;48.91
48200;BME280;33990;44.602;10.976;2022-12-11T08:13:15;99584.31;;;18.85;49.10
48200;BME280;33990;44.602;10.976;2022-12-11T08:15:42;99578.72;;;18.78;45.36
48200;BME280;33990;44.602;10.976;2022-12-11T08:18:09;99588.63;;;18.78;46.48
48200;BME280;33990;44.602;10.976;2022-12-11T08:20:37;99584.09;;;18.78;48.53
48200;BME280;33990;44.602;10.976;2022-12-11T08:23:05;99584.94;;;18.79;48.98
48200;BME280;33990;44.602;10.976;2022-12-11T08:25:32;99593.81;;;18.80;48.85
48200;BME280;33990;44.602;10.976;2022-12-11T08:28:00;99595.66;;;18.79;48.98
48200;BME280;33990;44.602;10.976;2022-12-11T08:30:27;99595.50;;;18.81;49.06
48200;BME280;33990;44.602;10.976;2022-12-11T08:32:54;99604.41;;;18.81;48.98
48200;BME280;33990;44.602;10.976;2022-12-11T08:35:22;99599.03;;;18.81;49.23
48200;BME280;33990;44.602;10.976;2022-12-11T08:37:49;99598.19;;;18.81;47.75
48200;BME280;33990;44.602;10.976;2022-12-11T08:40:17;99593.81;;;18.80;46.31
48200;BME280;33990;44.602;10.976;2022-12-11T08:42:44;99599.16;;;18.80;47.63
48200;BME280;33990;44.602;10.976;2022-12-11T08:45:11;99593.97;;;18.78;46.43
48200;BME280;33990;44.602;10.976;2022-12-11T08:47:39;99598.34;;;18.79;47.04
48200;BME280;33990;44.602;10.976;2022-12-11T08:50:07;99600.03;;;18.80;47.58
48200;BME280;33990;44.602;10.976;2022-12-11T08:52:35;99610.59;;;18.82;47.78
48200;BME280;33990;44.602;10.976;2022-12-11T08:55:03;99606.91;;;18.83;48.19
48200;BME280;33990;44.602;10.976;2022-12-11T08:57:30;99607.75;;;18.83;47.71
48200;BME280;33990;44.602;10.976;2022-12-11T08:59:57;99609.44;;;18.84;47.33
48200;BME280;33990;44.602;10.976;2022-12-11T09:02:25;99614.81;;;18.84;47.28
48200;BME280;33990;44.602;10.976;2022-12-11T09:04:52;99612.97;;;18.85;47.42
48200;BME280;33990;44.602;10.976;2022-12-11T09:07:20;99627.34;;;18.84;47.24
48200;BME280;33990;44.602;10.976;2022-12-11T09:09:47;99619.16;;;18.85;47.44
48200;BME280;33990;44.602;10.976;2022-12-11T09:12:14;99629.88;;;18.85;47.28
48200;BME280;33990;44.602;10.976;2022-12-11T09:14:42;99626.19;;;18.86;47.45
48200;BME280;33990;44.602;10.976;2022-12-11T09:17:09;99631.56;;;18.86;47.09
48200;BME280;33990;44.602;10.976;2022-12-11T09:19:36;99635.09;;;18.87;47.44
48200;BME280;33990;44.602;10.976;2022-12-11T09:22:04;99643.13;;;18.87;47.49
48200;BME280;33990;44.602;10.976;2022-12-11T09:24:31;99638.59;;;18.87;48.13
48200;BME280;33990;44.602;10.976;2022-12-11T09:26:58;99647.66;;;18.86;47.48
48200;BME280;33990;44.602;10.976;2022-12-11T09:29:26;99645.69;;;18.88;47.73
48200;BME280;33990;44.602;10.976;2022-12-11T09:31:53;99646.66;;;18.87;48.19
48200;BME280;33990;44.602;10.976;2022-12-11T09:34:21;99652.72;;;18.89;48.11
48200;BME280;33990;44.602;10.976;2022-12-11T09:36:55;99657.25;;;18.89;48.32
48200;BME280;33990;44.602;10.976;2022-12-11T09:39:22;99650.88;;;18.90;48.39
48200;BME280;33990;44.602;10.976;2022-12-11T09:44:40;99660.75;;;18.89;47.99
48200;BME280;33990;44.602;10.976;2022-12-11T09:47:30;99658.91;;;18.90;48.27
48200;BME280;33990;44.602;10.976;2022-12-11T09:55:23;99667.97;;;18.89;48.11
48200;BME280;33990;44.602;10.976;2022-12-11T10:00:34;99658.38;;;18.86;46.63
48200;BME280;33990;44.602;10.976;2022-12-11T10:05:49;99665.41;;;18.87;48.24
48200;BME280;33990;44.602;10.976;2022-12-11T10:08:50;99666.44;;;18.86;48.00
48200;BME280;33990;44.602;10.976;2022-12-11T10:11:49;99656.53;;;18.87;47.67
48200;BME280;33990;44.602;10.976;2022-12-11T10:15:11;99647.66;;;18.86;47.67
48200;BME280;33990;44.602;10.976;2022-12-11T10:17:41;99649.50;;;18.86;47.49
48200;BME280;33990;44.602;10.976;2022-12-11T10:22:44;99645.16;;;18.85;47.38
48200;BME280;33990;44.602;10.976;2022-12-11T10:25:22;99647.81;;;18.85;47.29
48200;BME280;33990;44.602;10.976;2022-12-11T10:27:53;99648.66;;;18.85;47.15
48200;BME280;33990;44.602;10.976;2022-12-11T10:30:36;99642.59;;;18.83;47.06
48200;BME280;33990;44.602;10.976;2022-12-11T10:33:26;99643.44;;;18.84;47.33
48200;BME280;33990;44.602;10.976;2022-12-11T10:35:57;99642.59;;;18.83;47.20
48200;BME280;33990;44.602;10.976;2022-12-11T10:38:33;99640.94;;;18.82;47.32
48200;BME280;33990;44.602;10.976;2022-12-11T10:41:05;99641.75;;;18.83;47.46
48200;BME280;33990;44.602;10.976;2022-12-11T10:43:44;99641.75;;;18.83;47.06
48200;BME280;33990;44.602;10.976;2022-12-11T10:46:23;99645.28;;;18.83;47.43
48200;BME280;33990;44.602;10.976;2022-12-11T10:48:54;99647.13;;;18.83;47.39
48200;BME280;33990;44.602;10.976;2022-12-11T10:51:24;99645.44;;;18.82;47.01
48200;BME280;33990;44.602;10.976;2022-12-11T10:53:54;99638.25;;;18.82;47.24
48200;BME280;33990;44.602;10.976;2022-12-11T10:56:32;99642.78;;;18.82;47.41
48200;BME280;33990;44.602;10.976;2022-12-11T10:59:02;99647.28;;;18.81;47.20
48200;BME280;33990;44.602;10.976;2022-12-11T11:01:30;99648.13;;;18.82;47.26
48200;BME280;33990;44.602;10.976;2022-12-11T11:04:03;99653.66;;;18.80;47.13
48200;BME280;33990;44.602;10.976;2022-12-11T11:06:32;99648.13;;;18.82;46.97
48200;BME280;33990;44.602;10.976;2022-12-11T11:09:02;99656.34;;;18.80;47.01
48200;BME280;33990;44.602;10.976;2022-12-11T11:11:30;99655.34;;;18.81;47.26
48200;BME280;33990;44.602;10.976;2022-12-11T11:14:20;99655.47;;;18.80;47.28
48200;BME280;33990;44.602;10.976;2022-12-11T11:16:51;99657.19;;;18.81;47.35
48200;BME280;33990;44.602;10.976;2022-12-11T11:19:22;99659.16;;;18.78;47.29
48200;BME280;33990;44.602;10.976;2022-12-11T11:21:57;99660.84;;;18.80;47.44
48200;BME280;33990;44.602;10.976;2022-12-11T11:24:35;99660.84;;;18.80;47.28
48200;BME280;33990;44.602;10.976;2022-12-11T11:27:25;99663.53;;;18.80;47.35
48200;BME280;33990;44.602;10.976;2022-12-11T11:29:56;99661.84;;;18.78;47.18
48200;BME280;33990;44.602;10.976;2022-12-11T11:32:36;99661.84;;;18.78;47.28
48200;BME280;33990;44.602;10.976;2022-12-11T11:35:15;99654.81;;;18.77;47.21
48200;BME280;33990;44.602;10.976;2022-12-11T11:37:45;99656.47;;;18.78;47.13
48200;BME280;33990;44.602;10.976;2022-12-11T11:40:27;99657.50;;;18.77;47.07
48200;BME280;33990;44.602;10.976;2022-12-11T11:43:12;99656.47;;;18.78;47.04
48200;BME280;33990;44.602;10.976;2022-12-11T11:48:29;99658.31;;;18.78;47.16
48200;BME280;33990;44.602;10.976;2022-12-11T11:51:07;99655.66;;;18.78;47.09
48200;BME280;33990;44.602;10.976;2022-12-11T11:53:39;99662.00;;;18.77;46.72
48200;BME280;33990;44.602;10.976;2022-12-11T11:58:46;99645.09;;;18.76;47.28
48200;BME280;33990;44.602;10.976;2022-12-11T12:01:18;99659.47;;;18.75;47.07
48200;BME280;33990;44.602;10.976;2022-12-11T12:03:47;99663.84;;;18.76;47.10
48200;BME280;33990;44.602;10.976;2022-12-11T12:09:47;99656.78;;;18.75;47.13
48200;BME280;33990;44.602;10.976;2022-12-11T12:17:54;99658.63;;;18.75;47.08
48200;BME280;33990;44.602;10.976;2022-12-11T12:23:31;99664.84;;;18.75;47.15
48200;BME280;33990;44.602;10.976;2022-12-11T12:29:23;99672.03;;;18.75;47.03
48200;BME280;33990;44.602;10.976;2022-12-11T12:32:08;99670.34;;;18.74;47.14
48200;BME280;33990;44.602;10.976;2022-12-11T12:34:49;99684.47;;;18.76;46.91
48200;BME280;33990;44.602;10.976;2022-12-11T12:40:59;99687.28;;;18.74;47.19
48200;BME280;33990;44.602;10.976;2022-12-11T12:49:01;99690.97;;;18.73;46.79
48200;BME280;33990;44.602;10.976;2022-12-11T12:51:29;99688.28;;;18.73;47.13
48200;BME280;33990;44.602;10.976;2022-12-11T12:53:59;99690.97;;;18.73;46.98
48200;BME280;33990;44.602;10.976;2022-12-11T12:56:29;99695.50;;;18.73;47.03
48200;BME280;33990;44.602;10.976;2022-12-11T12:58:58;99690.13;;;18.73;47.07
48200;BME280;33990;44.602;10.976;2022-12-11T13:01:27;99693.81;;;18.72;46.95
48200;BME280;33990;44.602;10.976;2022-12-11T13:04:05;99693.81;;;18.72;46.95
48200;BME280;33990;44.602;10.976;2022-12-11T13:06:54;99697.47;;;18.71;47.00
48200;BME280;33990;44.602;10.976;2022-12-11T13:09:26;99701.00;;;18.71;46.97
48200;BME280;33990;44.602;10.976;2022-12-11T13:11:55;99698.31;;;18.71;47.05
48200;BME280;33990;44.602;10.976;2022-12-11T13:14:30;99695.63;;;18.71;46.81
48200;BME280;33990;44.602;10.976;2022-12-11T13:17:23;99692.94;;;18.71;46.98
48200;BME280;33990;44.602;10.976;2022-12-11T13:20:10;99693.97;;;18.70;46.89
48200;BME280;33990;44.602;10.976;2022-12-11T13:25:26;99702.84;;;18.71;46.92
48200;BME280;33990;44.602;10.976;2022-12-11T13:28:05;99701.00;;;18.71;46.93
48200;BME280;33990;44.602;10.976;2022-12-11T13:30:33;99702.84;;;18.71;46.96
48200;BME280;33990;44.602;10.976;2022-12-11T13:33:04;99695.78;;;18.70;47.02
48200;BME280;33990;44.602;10.976;2022-12-11T13:35:33;99701.16;;;18.70;46.89
48200;BME280;33990;44.602;10.976;2022-12-11T13:38:27;99702.84;;;18.71;46.78
48200;BME280;33990;44.602;10.976;2022-12-11T13:40:55;99707.34;;;18.70;46.95
48200;BME280;33990;44.602;10.976;2022-12-11T13:43:28;99715.41;;;18.70;46.87
48200;BME280;33990;44.602;10.976;2022-12-11T13:46:08;99716.38;;;18.69;46.92
48200;BME280;33990;44.602;10.976;2022-12-11T13:48:38;99719.06;;;18.69;46.82
48200;BME280;33990;44.602;10.976;2022-12-11T13:51:07;99728.94;;;18.69;46.88
48200;BME280;33990;44.602;10.976;2022-12-11T13:53:34;99738.69;;;18.70;47.02
48200;BME280;33990;44.602;10.976;2022-12-11T13:56:05;99740.50;;;18.69;46.86
48200;BME280;33990;44.602;10.976;2022-12-11T13:58:34;99746.72;;;18.70;46.96
48200;BME280;33990;44.602;10.976;2022-12-11T14:01:12;99745.03;;;18.69;46.81
48200;BME280;33990;44.602;10.976;2022-12-11T14:04:02;99746.88;;;18.68;46.71
48200;BME280;33990;44.602;10.976;2022-12-11T14:06:32;99745.03;;;18.69;46.89
48200;BME280;33990;44.602;10.976;2022-12-11T14:09:01;99754.91;;;18.68;46.51
48200;BME280;33990;44.602;10.976;2022-12-11T14:11:35;99753.19;;;18.67;46.83
48200;BME280;33990;44.602;10.976;2022-12-11T14:14:07;99755.88;;;18.67;46.88
48200;BME280;33990;44.602;10.976;2022-12-11T14:16:42;99760.41;;;18.67;46.91